sensor_id;sensor_type;location;lat;lon;timestamp;temperature;humidity
19888;DHT22;10106;51.332;12.336;2022-09-12T00:00:42;14.80;99.90
19888;DHT22;10106;51.332;12.336;2022-09-12T00:03:08;14.70;99.90
19888;DHT22;10106;51.332;12.336;2022-09-12T00:05:35;14.70;99.90
19888;DHT22;10106;51.332;12.336;2022-09-12T00:08:04;14.60;99.90
19888;DHT22;10106;51.332;12.336;2022-09-12T00:10:30;14.60;99.90
19888;DHT22;10106;51.332;12.336;2022-09-12T00:12:55;14.50;99.90
19888;DHT22;10106;51.332;12.336;2022-09-12T00:15:21;14.50;99.90
19888;DHT22;10106;51.332;12.336;2022-09-12T00:17:46;14.30;99.90
19888;DHT22;10106;51.332;12.336;2022-09-12T00:20:12;14.30;99.90
19888;DHT22;10106;51.332;12.336;2022-09-12T00:22:38;14.20;99.90
19888;DHT22;10106;51.332;12.336;2022-09-12T00:25:04;14.20;99.90
19888;DHT22;10106;51.332;12.336;2022-09-12T00:27:29;14.10;99.90
19888;DHT22;10106;51.332;12.336;2022-09-12T00:29:55;14.00;99.90
19888;DHT22;10106;51.332;12.336;2022-09-12T00:32:22;14.00;99.90
19888;DHT22;10106;51.332;12.336;2022-09-12T00:34:47;14.00;99.90
19888;DHT22;10106;51.332;12.336;2022-09-12T00:37:13;14.00;99.90
19888;DHT22;10106;51.332;12.336;2022-09-12T00:39:38;14.10;99.90
19888;DHT22;10106;51.332;12.336;2022-09-12T00:42:04;14.10;99.90
19888;DHT22;10106;51.332;12.336;2022-09-12T00:47:03;14.10;99.90
19888;DHT22;10106;51.332;12.336;2022-09-12T00:52:11;14.20;99.90
19888;DHT22;10106;51.332;12.336;2022-09-12T00:55:02;14.20;99.90
19888;DHT22;10106;51.332;12.336;2022-09-12T00:57:30;14.30;99.90
19888;DHT22;10106;51.332;12.336;2022-09-12T01:00:03;14.30;99.90
19888;DHT22;10106;51.332;12.336;2022-09-12T01:02:33;14.40;99.90
19888;DHT22;10106;51.332;12.336;2022-09-12T01:04:59;14.40;99.90
19888;DHT22;10106;51.332;12.336;2022-09-12T01:07:25;14.30;99.90
19888;DHT22;10106;51.332;12.336;2022-09-12T01:09:50;14.20;99.90
19888;DHT22;10106;51.332;12.336;2022-09-12T01:12:16;14.20;99.90
19888;DHT22;10106;51.332;12.336;2022-09-12T01:14:42;14.20;99.90
19888;DHT22;10106;51.332;12.336;2022-09-12T01:17:12;14.10;99.90
19888;DHT22;10106;51.332;12.336;2022-09-12T01:30:58;14.00;99.90
19888;DHT22;10106;51.332;12.336;2022-09-12T01:33:46;14.00;99.90
19888;DHT22;10106;51.332;12.336;2022-09-12T01:36:36;14.00;99.90
19888;DHT22;10106;51.332;12.336;2022-09-12T01:39:13;14.00;99.90
19888;DHT22;10106;51.332;12.336;2022-09-12T01:44:19;14.00;99.90
19888;DHT22;10106;51.332;12.336;2022-09-12T01:46:50;13.90;99.90
19888;DHT22;10106;51.332;12.336;2022-09-12T01:49:28;13.90;99.90
19888;DHT22;10106;51.332;12.336;2022-09-12T01:52:23;13.90;99.90
19888;DHT22;10106;51.332;12.336;2022-09-12T01:54:56;13.90;99.90
19888;DHT22;10106;51.332;12.336;2022-09-12T01:57:34;13.90;99.90
19888;DHT22;10106;51.332;12.336;2022-09-12T02:00:05;13.90;99.90
19888;DHT22;10106;51.332;12.336;2022-09-12T02:02:38;14.00;99.90
19888;DHT22;10106;51.332;12.336;2022-09-12T02:05:10;14.10;99.90
19888;DHT22;10106;51.332;12.336;2022-09-12T02:07:45;14.00;99.90
19888;DHT22;10106;51.332;12.336;2022-09-12T02:10:21;14.10;99.90
19888;DHT22;10106;51.332;12.336;2022-09-12T02:13:05;14.10;99.90
19888;DHT22;10106;51.332;12.336;2022-09-12T02:15:38;14.10;99.90
19888;DHT22;10106;51.332;12.336;2022-09-12T02:18:05;14.10;99.90
19888;DHT22;10106;51.332;12.336;2022-09-12T02:20:35;14.00;99.90
19888;DHT22;10106;51.332;12.336;2022-09-12T02:23:05;14.00;99.90
19888;DHT22;10106;51.332;12.336;2022-09-12T02:25:33;13.90;99.90
19888;DHT22;10106;51.332;12.336;2022-09-12T02:28:24;13.90;99.90
19888;DHT22;10106;51.332;12.336;2022-09-12T02:36:48;13.80;99.90
19888;DHT22;10106;51.332;12.336;2022-09-12T02:39:16;13.80;99.90
19888;DHT22;10106;51.332;12.336;2022-09-12T02:41:51;13.70;99.90
19888;DHT22;10106;51.332;12.336;2022-09-12T02:44:17;13.70;99.90
19888;DHT22;10106;51.332;12.336;2022-09-12T02:46:46;13.70;99.90
19888;DHT22;10106;51.332;12.336;2022-09-12T02:49:15;13.60;99.90
19888;DHT22;10106;51.332;12.336;2022-09-12T02:51:41;13.50;99.90
19888;DHT22;10106;51.332;12.336;2022-09-12T02:54:07;13.40;99.90
19888;DHT22;10106;51.332;12.336;2022-09-12T02:56:34;13.40;99.90
19888;DHT22;10106;51.332;12.336;2022-09-12T02:59:06;13.30;99.90
19888;DHT22;10106;51.332;12.336;2022-09-12T03:07:17;13.30;99.90
19888;DHT22;10106;51.332;12.336;2022-09-12T03:10:09;13.40;99.90
19888;DHT22;10106;51.332;12.336;2022-09-12T03:15:40;13.40;99.90
19888;DHT22;10106;51.332;12.336;2022-09-12T03:23:36;13.30;99.90
19888;DHT22;10106;51.332;12.336;2022-09-12T03:26:18;13.30;99.90
19888;DHT22;10106;51.332;12.336;2022-09-12T03:28:45;13.20;99.90
19888;DHT22;10106;51.332;12.336;2022-09-12T03:31:14;13.20;99.90
19888;DHT22;10106;51.332;12.336;2022-09-12T03:33:40;13.10;99.90
19888;DHT22;10106;51.332;12.336;2022-09-12T03:36:06;13.10;99.90
19888;DHT22;10106;51.332;12.336;2022-09-12T03:38:34;13.10;99.90
19888;DHT22;10106;51.332;12.336;2022-09-12T03:41:00;13.00;99.90
19888;DHT22;10106;51.332;12.336;2022-09-12T03:43:25;12.90;99.90
19888;DHT22;10106;51.332;12.336;2022-09-12T03:45:51;12.90;99.90
19888;DHT22;10106;51.332;12.336;2022-09-12T03:48:17;12.90;99.90
19888;DHT22;10106;51.332;12.336;2022-09-12T03:50:43;12.80;99.90
19888;DHT22;10106;51.332;12.336;2022-09-12T03:53:08;12.80;99.90
19888;DHT22;10106;51.332;12.336;2022-09-12T03:55:34;12.80;99.90
19888;DHT22;10106;51.332;12.336;2022-09-12T03:58:00;12.70;99.90
19888;DHT22;10106;51.332;12.336;2022-09-12T04:00:26;12.70;99.90
19888;DHT22;10106;51.332;12.336;2022-09-12T04:02:55;12.70;99.90
19888;DHT22;10106;51.332;12.336;2022-09-12T04:05:22;12.70;99.90
19888;DHT22;10106;51.332;12.336;2022-09-12T04:07:48;12.70;99.90
19888;DHT22;10106;51.332;12.336;2022-09-12T04:10:13;12.70;99.90
19888;DHT22;10106;51.332;12.336;2022-09-12T04:12:39;12.70;99.90
19888;DHT22;10106;51.332;12.336;2022-09-12T04:15:05;12.70;99.90
19888;DHT22;10106;51.332;12.336;2022-09-12T04:17:33;12.60;99.90
19888;DHT22;10106;51.332;12.336;2022-09-12T04:19:59;12.60;99.90
19888;DHT22;10106;51.332;12.336;2022-09-12T04:22:25;12.60;99.90
19888;DHT22;10106;51.332;12.336;2022-09-12T04:24:51;12.60;99.90
19888;DHT22;10106;51.332;12.336;2022-09-12T04:27:16;12.60;99.90
19888;DHT22;10106;51.332;12.336;2022-09-12T04:29:42;12.50;99.90
19888;DHT22;10106;51.332;12.336;2022-09-12T04:32:08;12.50;99.90
19888;DHT22;10106;51.332;12.336;2022-09-12T04:34:34;12.70;99.90
19888;DHT22;10106;51.332;12.336;2022-09-12T04:36:59;12.70;99.90
19888;DHT22;10106;51.332;12.336;2022-09-12T04:39:25;12.80;99.90
19888;DHT22;10106;51.332;12.336;2022-09-12T04:41:51;12.90;99.90
19888;DHT22;10106;51.332;12.336;2022-09-12T04:44:16;12.90;99.90
19888;DHT22;10106;51.332;12.336;2022-09-12T04:46:44;13.10;99.90
19888;DHT22;10106;51.332;12.336;2022-09-12T04:49:11;13.20;99.90
19888;DHT22;10106;51.332;12.336;2022-09-12T04:51:39;13.20;99.90
19888;DHT22;10106;51.332;12.336;2022-09-12T04:54:09;13.20;99.90
19888;DHT22;10106;51.332;12.336;2022-09-12T04:56:39;13.20;99.90
19888;DHT22;10106;51.332;12.336;2022-09-12T04:59:06;13.30;99.90
19888;DHT22;10106;51.332;12.336;2022-09-12T05:06:43;13.40;99.90
19888;DHT22;10106;51.332;12.336;2022-09-12T05:09:12;13.50;99.90
19888;DHT22;10106;51.332;12.336;2022-09-12T05:11:41;13.60;99.90
19888;DHT22;10106;51.332;12.336;2022-09-12T05:14:07;13.70;99.90
19888;DHT22;10106;51.332;12.336;2022-09-12T05:16:34;13.80;99.90
19888;DHT22;10106;51.332;12.336;2022-09-12T05:18:59;13.90;99.90
19888;DHT22;10106;51.332;12.336;2022-09-12T05:21:25;14.00;99.90
19888;DHT22;10106;51.332;12.336;2022-09-12T05:23:55;14.00;99.90
19888;DHT22;10106;51.332;12.336;2022-09-12T05:26:22;14.10;99.90
19888;DHT22;10106;51.332;12.336;2022-09-12T05:28:48;14.20;99.90
19888;DHT22;10106;51.332;12.336;2022-09-12T05:31:15;14.20;99.90
19888;DHT22;10106;51.332;12.336;2022-09-12T05:33:43;14.40;99.90
19888;DHT22;10106;51.332;12.336;2022-09-12T05:36:16;14.50;99.90
19888;DHT22;10106;51.332;12.336;2022-09-12T05:38:43;14.60;99.90
19888;DHT22;10106;51.332;12.336;2022-09-12T05:41:11;14.80;99.90
19888;DHT22;10106;51.332;12.336;2022-09-12T05:43:39;14.90;99.90
19888;DHT22;10106;51.332;12.336;2022-09-12T05:46:08;15.10;99.90
19888;DHT22;10106;51.332;12.336;2022-09-12T05:48:35;15.30;99.90
19888;DHT22;10106;51.332;12.336;2022-09-12T05:51:12;15.40;99.90
19888;DHT22;10106;51.332;12.336;2022-09-12T05:53:39;15.60;99.90
19888;DHT22;10106;51.332;12.336;2022-09-12T05:56:10;15.80;99.90
19888;DHT22;10106;51.332;12.336;2022-09-12T05:58:44;16.30;99.90
19888;DHT22;10106;51.332;12.336;2022-09-12T06:01:12;16.60;99.90
19888;DHT22;10106;51.332;12.336;2022-09-12T06:03:47;16.90;99.90
19888;DHT22;10106;51.332;12.336;2022-09-12T06:06:14;17.00;99.90
19888;DHT22;10106;51.332;12.336;2022-09-12T06:08:44;17.30;99.90
19888;DHT22;10106;51.332;12.336;2022-09-12T06:11:13;17.30;99.90
19888;DHT22;10106;51.332;12.336;2022-09-12T06:13:39;17.30;99.90
19888;DHT22;10106;51.332;12.336;2022-09-12T06:16:08;17.30;99.90
19888;DHT22;10106;51.332;12.336;2022-09-12T06:18:35;17.40;99.90
19888;DHT22;10106;51.332;12.336;2022-09-12T06:21:06;17.40;99.90
19888;DHT22;10106;51.332;12.336;2022-09-12T06:23:32;17.50;99.90
19888;DHT22;10106;51.332;12.336;2022-09-12T06:25:59;17.60;99.90
19888;DHT22;10106;51.332;12.336;2022-09-12T06:28:25;17.70;99.90
19888;DHT22;10106;51.332;12.336;2022-09-12T06:30:51;17.80;99.90
19888;DHT22;10106;51.332;12.336;2022-09-12T06:33:17;17.90;99.90
19888;DHT22;10106;51.332;12.336;2022-09-12T06:35:43;18.10;99.90
19888;DHT22;10106;51.332;12.336;2022-09-12T06:38:09;18.60;99.90
19888;DHT22;10106;51.332;12.336;2022-09-12T06:40:40;18.90;99.90
19888;DHT22;10106;51.332;12.336;2022-09-12T06:43:08;20.30;99.90
19888;DHT22;10106;51.332;12.336;2022-09-12T06:45:34;22.90;99.90
19888;DHT22;10106;51.332;12.336;2022-09-12T06:50:27;24.90;99.90
19888;DHT22;10106;51.332;12.336;2022-09-12T06:52:52;24.30;99.90
19888;DHT22;10106;51.332;12.336;2022-09-12T06:55:18;23.40;99.90
19888;DHT22;10106;51.332;12.336;2022-09-12T06:57:43;22.50;99.90
19888;DHT22;10106;51.332;12.336;2022-09-12T07:00:10;21.80;99.90
19888;DHT22;10106;51.332;12.336;2022-09-12T07:02:36;21.80;99.90
19888;DHT22;10106;51.332;12.336;2022-09-12T07:05:01;22.40;99.90
19888;DHT22;10106;51.332;12.336;2022-09-12T07:07:27;22.20;99.90
19888;DHT22;10106;51.332;12.336;2022-09-12T07:09:53;21.60;99.90
19888;DHT22;10106;51.332;12.336;2022-09-12T07:12:18;21.20;99.90
19888;DHT22;10106;51.332;12.336;2022-09-12T07:14:44;20.80;99.90
19888;DHT22;10106;51.332;12.336;2022-09-12T07:17:09;20.50;99.90
19888;DHT22;10106;51.332;12.336;2022-09-12T07:19:36;20.50;99.90
19888;DHT22;10106;51.332;12.336;2022-09-12T07:22:02;20.30;99.90
19888;DHT22;10106;51.332;12.336;2022-09-12T07:24:28;20.30;99.90
19888;DHT22;10106;51.332;12.336;2022-09-12T07:26:54;20.40;99.90
19888;DHT22;10106;51.332;12.336;2022-09-12T07:29:20;20.90;99.90
19888;DHT22;10106;51.332;12.336;2022-09-12T07:31:45;22.20;99.90
19888;DHT22;10106;51.332;12.336;2022-09-12T07:34:11;23.30;99.90
19888;DHT22;10106;51.332;12.336;2022-09-12T07:36:38;23.50;99.90
19888;DHT22;10106;51.332;12.336;2022-09-12T07:39:03;24.40;99.90
19888;DHT22;10106;51.332;12.336;2022-09-12T07:41:30;24.70;99.90
19888;DHT22;10106;51.332;12.336;2022-09-12T07:43:59;27.00;99.90
19888;DHT22;10106;51.332;12.336;2022-09-12T07:46:27;28.70;96.80
19888;DHT22;10106;51.332;12.336;2022-09-12T07:48:55;28.40;92.70
19888;DHT22;10106;51.332;12.336;2022-09-12T07:51:23;28.90;91.40
19888;DHT22;10106;51.332;12.336;2022-09-12T07:53:48;31.10;80.60
19888;DHT22;10106;51.332;12.336;2022-09-12T08:03:44;34.10;63.90
19888;DHT22;10106;51.332;12.336;2022-09-12T08:06:11;34.60;60.40
19888;DHT22;10106;51.332;12.336;2022-09-12T08:08:37;34.70;58.80
19888;DHT22;10106;51.332;12.336;2022-09-12T08:11:06;34.50;58.40
19888;DHT22;10106;51.332;12.336;2022-09-12T08:13:34;34.40;57.20
19888;DHT22;10106;51.332;12.336;2022-09-12T08:16:02;34.00;57.50
19888;DHT22;10106;51.332;12.336;2022-09-12T08:18:29;34.50;57.90
19888;DHT22;10106;51.332;12.336;2022-09-12T08:21:01;35.00;56.30
19888;DHT22;10106;51.332;12.336;2022-09-12T08:23:28;34.40;56.20
19888;DHT22;10106;51.332;12.336;2022-09-12T08:25:55;34.20;56.20
19888;DHT22;10106;51.332;12.336;2022-09-12T08:28:22;33.40;57.20
19888;DHT22;10106;51.332;12.336;2022-09-12T08:30:47;34.20;57.50
19888;DHT22;10106;51.332;12.336;2022-09-12T08:33:13;34.50;56.30
19888;DHT22;10106;51.332;12.336;2022-09-12T08:35:39;34.20;55.70
19888;DHT22;10106;51.332;12.336;2022-09-12T08:38:05;34.20;55.40
19888;DHT22;10106;51.332;12.336;2022-09-12T08:40:32;34.80;55.10
19888;DHT22;10106;51.332;12.336;2022-09-12T08:46:45;33.70;54.80
19888;DHT22;10106;51.332;12.336;2022-09-12T08:49:14;33.90;55.10
19888;DHT22;10106;51.332;12.336;2022-09-12T08:51:44;34.30;54.90
19888;DHT22;10106;51.332;12.336;2022-09-12T08:54:28;34.70;53.70
19888;DHT22;10106;51.332;12.336;2022-09-12T08:57:03;34.60;53.70
19888;DHT22;10106;51.332;12.336;2022-09-12T08:59:48;34.80;53.20
19888;DHT22;10106;51.332;12.336;2022-09-12T09:05:04;35.10;52.70
19888;DHT22;10106;51.332;12.336;2022-09-12T09:10:45;35.80;51.80
19888;DHT22;10106;51.332;12.336;2022-09-12T09:18:43;32.70;52.60
19888;DHT22;10106;51.332;12.336;2022-09-12T09:21:25;32.30;56.20
19888;DHT22;10106;51.332;12.336;2022-09-12T09:24:01;32.90;55.60
19888;DHT22;10106;51.332;12.336;2022-09-12T09:29:17;33.90;53.10
19888;DHT22;10106;51.332;12.336;2022-09-12T09:31:48;34.00;52.50
19888;DHT22;10106;51.332;12.336;2022-09-12T09:34:18;34.40;52.70
19888;DHT22;10106;51.332;12.336;2022-09-12T09:42:33;35.50;50.30
19888;DHT22;10106;51.332;12.336;2022-09-12T09:45:16;34.90;49.70
19888;DHT22;10106;51.332;12.336;2022-09-12T09:48:12;34.70;50.40
19888;DHT22;10106;51.332;12.336;2022-09-12T09:50:37;33.00;51.00
19888;DHT22;10106;51.332;12.336;2022-09-12T09:53:04;30.20;55.20
19888;DHT22;10106;51.332;12.336;2022-09-12T09:55:40;28.30;59.10
19888;DHT22;10106;51.332;12.336;2022-09-12T09:58:07;27.30;61.80
19888;DHT22;10106;51.332;12.336;2022-09-12T10:00:34;26.10;65.60
19888;DHT22;10106;51.332;12.336;2022-09-12T10:03:02;24.90;70.20
19888;DHT22;10106;51.332;12.336;2022-09-12T10:05:29;23.90;77.90
19888;DHT22;10106;51.332;12.336;2022-09-12T10:07:55;23.10;86.20
19888;DHT22;10106;51.332;12.336;2022-09-12T10:10:21;22.80;90.40
19888;DHT22;10106;51.332;12.336;2022-09-12T10:12:50;22.70;92.40
19888;DHT22;10106;51.332;12.336;2022-09-12T10:15:24;22.40;94.30
19888;DHT22;10106;51.332;12.336;2022-09-12T10:17:53;22.20;95.60
19888;DHT22;10106;51.332;12.336;2022-09-12T10:20:39;22.00;99.20
19888;DHT22;10106;51.332;12.336;2022-09-12T10:25:57;21.60;99.90
19888;DHT22;10106;51.332;12.336;2022-09-12T10:30:58;21.20;99.90
19888;DHT22;10106;51.332;12.336;2022-09-12T10:33:27;21.10;99.90
19888;DHT22;10106;51.332;12.336;2022-09-12T10:35:54;21.00;99.90
19888;DHT22;10106;51.332;12.336;2022-09-12T10:38:24;21.00;99.90
19888;DHT22;10106;51.332;12.336;2022-09-12T10:41:04;20.90;99.90
19888;DHT22;10106;51.332;12.336;2022-09-12T10:43:37;20.80;99.90
19888;DHT22;10106;51.332;12.336;2022-09-12T10:48:43;21.10;99.90
19888;DHT22;10106;51.332;12.336;2022-09-12T10:53:56;22.20;99.90
19888;DHT22;10106;51.332;12.336;2022-09-12T10:56:28;22.70;99.90
19888;DHT22;10106;51.332;12.336;2022-09-12T11:02:00;22.80;99.90
19888;DHT22;10106;51.332;12.336;2022-09-12T11:04:57;23.20;98.40
19888;DHT22;10106;51.332;12.336;2022-09-12T11:07:47;23.10;97.50
19888;DHT22;10106;51.332;12.336;2022-09-12T11:21:49;23.50;91.30
19888;DHT22;10106;51.332;12.336;2022-09-12T11:27:41;22.90;94.50
19888;DHT22;10106;51.332;12.336;2022-09-12T11:30:13;23.00;94.60
19888;DHT22;10106;51.332;12.336;2022-09-12T11:33:05;23.30;94.70
19888;DHT22;10106;51.332;12.336;2022-09-12T11:35:34;23.40;94.30
19888;DHT22;10106;51.332;12.336;2022-09-12T11:38:36;23.70;94.40
19888;DHT22;10106;51.332;12.336;2022-09-12T11:41:08;23.50;93.90
19888;DHT22;10106;51.332;12.336;2022-09-12T11:46:37;23.20;94.20
19888;DHT22;10106;51.332;12.336;2022-09-12T11:49:10;23.00;94.30
19888;DHT22;10106;51.332;12.336;2022-09-12T11:56:50;23.60;93.20
19888;DHT22;10106;51.332;12.336;2022-09-12T11:59:58;23.60;91.50
19888;DHT22;10106;51.332;12.336;2022-09-12T12:02:27;23.60;92.10
19888;DHT22;10106;51.332;12.336;2022-09-12T12:07:54;23.80;90.70
19888;DHT22;10106;51.332;12.336;2022-09-12T12:10:50;23.90;90.20
19888;DHT22;10106;51.332;12.336;2022-09-12T12:13:29;23.60;88.80
19888;DHT22;10106;51.332;12.336;2022-09-12T12:16:02;23.00;91.10
19888;DHT22;10106;51.332;12.336;2022-09-12T12:18:31;23.00;91.10
19888;DHT22;10106;51.332;12.336;2022-09-12T12:24:02;22.90;91.10
19888;DHT22;10106;51.332;12.336;2022-09-12T12:34:33;22.70;92.20
19888;DHT22;10106;51.332;12.336;2022-09-12T12:45:03;23.10;86.20
19888;DHT22;10106;51.332;12.336;2022-09-12T12:55:23;23.30;83.60
19888;DHT22;10106;51.332;12.336;2022-09-12T12:57:51;23.40;85.50
19888;DHT22;10106;51.332;12.336;2022-09-12T13:05:49;23.30;84.70
19888;DHT22;10106;51.332;12.336;2022-09-12T13:10:52;23.30;84.70
19888;DHT22;10106;51.332;12.336;2022-09-12T13:13:30;23.50;83.60
19888;DHT22;10106;51.332;12.336;2022-09-12T13:15:56;23.40;83.20
19888;DHT22;10106;51.332;12.336;2022-09-12T13:18:27;23.40;82.10
19888;DHT22;10106;51.332;12.336;2022-09-12T13:21:17;23.30;80.60
19888;DHT22;10106;51.332;12.336;2022-09-12T13:23:44;23.50;79.10
19888;DHT22;10106;51.332;12.336;2022-09-12T13:26:24;23.50;75.70
19888;DHT22;10106;51.332;12.336;2022-09-12T13:29:20;23.40;72.60
19888;DHT22;10106;51.332;12.336;2022-09-12T13:32:07;23.60;72.50
19888;DHT22;10106;51.332;12.336;2022-09-12T13:39:47;23.40;69.00
19888;DHT22;10106;51.332;12.336;2022-09-12T13:44:57;23.70;69.40
19888;DHT22;10106;51.332;12.336;2022-09-12T13:47:34;23.60;69.20
19888;DHT22;10106;51.332;12.336;2022-09-12T13:50:02;23.70;70.50
19888;DHT22;10106;51.332;12.336;2022-09-12T13:52:32;23.80;71.30
19888;DHT22;10106;51.332;12.336;2022-09-12T13:55:00;23.60;69.80
19888;DHT22;10106;51.332;12.336;2022-09-12T13:59:54;23.60;71.20
19888;DHT22;10106;51.332;12.336;2022-09-12T14:02:26;23.60;71.80
19888;DHT22;10106;51.332;12.336;2022-09-12T14:04:54;23.30;72.80
19888;DHT22;10106;51.332;12.336;2022-09-12T14:07:44;23.20;73.70
19888;DHT22;10106;51.332;12.336;2022-09-12T14:10:42;23.20;75.00
19888;DHT22;10106;51.332;12.336;2022-09-12T14:13:17;23.30;75.60
19888;DHT22;10106;51.332;12.336;2022-09-12T14:15:45;23.50;74.80
19888;DHT22;10106;51.332;12.336;2022-09-12T14:20:48;23.60;73.70
19888;DHT22;10106;51.332;12.336;2022-09-12T14:23:27;23.60;74.50
19888;DHT22;10106;51.332;12.336;2022-09-12T14:25:54;23.40;75.70
19888;DHT22;10106;51.332;12.336;2022-09-12T14:28:21;23.20;75.90
19888;DHT22;10106;51.332;12.336;2022-09-12T14:33:46;23.00;78.80
19888;DHT22;10106;51.332;12.336;2022-09-12T14:38:46;22.60;85.70
19888;DHT22;10106;51.332;12.336;2022-09-12T14:41:23;22.60;85.70
19888;DHT22;10106;51.332;12.336;2022-09-12T14:43:57;22.70;86.70
19888;DHT22;10106;51.332;12.336;2022-09-12T14:46:37;22.70;86.50
19888;DHT22;10106;51.332;12.336;2022-09-12T14:49:17;22.70;83.90
19888;DHT22;10106;51.332;12.336;2022-09-12T14:57:05;22.50;88.50
19888;DHT22;10106;51.332;12.336;2022-09-12T15:07:31;22.30;90.30
19888;DHT22;10106;51.332;12.336;2022-09-12T15:09:58;22.10;90.70
19888;DHT22;10106;51.332;12.336;2022-09-12T15:12:25;22.00;91.70
19888;DHT22;10106;51.332;12.336;2022-09-12T15:14:51;22.00;92.60
19888;DHT22;10106;51.332;12.336;2022-09-12T15:17:17;21.90;93.30
19888;DHT22;10106;51.332;12.336;2022-09-12T15:19:43;21.90;93.10
19888;DHT22;10106;51.332;12.336;2022-09-12T15:22:11;21.90;92.80
19888;DHT22;10106;51.332;12.336;2022-09-12T15:24:37;21.80;92.00
19888;DHT22;10106;51.332;12.336;2022-09-12T15:27:08;21.90;92.20
19888;DHT22;10106;51.332;12.336;2022-09-12T15:29:35;21.80;91.90
19888;DHT22;10106;51.332;12.336;2022-09-12T15:32:00;21.70;92.30
19888;DHT22;10106;51.332;12.336;2022-09-12T15:34:26;21.70;93.10
19888;DHT22;10106;51.332;12.336;2022-09-12T15:36:52;21.70;93.90
19888;DHT22;10106;51.332;12.336;2022-09-12T15:39:17;21.60;94.30
19888;DHT22;10106;51.332;12.336;2022-09-12T15:41:43;21.50;95.50
19888;DHT22;10106;51.332;12.336;2022-09-12T15:44:11;21.40;95.40
19888;DHT22;10106;51.332;12.336;2022-09-12T15:46:37;21.30;96.00
19888;DHT22;10106;51.332;12.336;2022-09-12T15:49:03;21.20;95.90
19888;DHT22;10106;51.332;12.336;2022-09-12T15:51:28;21.20;96.30
19888;DHT22;10106;51.332;12.336;2022-09-12T15:53:54;21.20;96.60
19888;DHT22;10106;51.332;12.336;2022-09-12T15:56:20;21.10;97.00
19888;DHT22;10106;51.332;12.336;2022-09-12T15:58:47;21.10;97.20
19888;DHT22;10106;51.332;12.336;2022-09-12T16:01:14;21.00;97.40
19888;DHT22;10106;51.332;12.336;2022-09-12T16:03:40;21.00;97.60
19888;DHT22;10106;51.332;12.336;2022-09-12T16:06:06;20.90;98.10
19888;DHT22;10106;51.332;12.336;2022-09-12T16:08:33;20.90;98.70
19888;DHT22;10106;51.332;12.336;2022-09-12T16:11:03;20.80;99.10
19888;DHT22;10106;51.332;12.336;2022-09-12T16:13:29;20.80;98.80
19888;DHT22;10106;51.332;12.336;2022-09-12T16:15:58;20.80;99.20
19888;DHT22;10106;51.332;12.336;2022-09-12T16:18:26;20.80;99.40
19888;DHT22;10106;51.332;12.336;2022-09-12T16:20:54;20.70;99.40
19888;DHT22;10106;51.332;12.336;2022-09-12T16:23:20;20.70;99.60
19888;DHT22;10106;51.332;12.336;2022-09-12T16:25:58;20.70;99.80
19888;DHT22;10106;51.332;12.336;2022-09-12T16:28:24;20.70;99.90
19888;DHT22;10106;51.332;12.336;2022-09-12T16:31:00;20.80;99.90
19888;DHT22;10106;51.332;12.336;2022-09-12T16:33:27;20.80;99.90
19888;DHT22;10106;51.332;12.336;2022-09-12T16:36:02;20.80;99.90
19888;DHT22;10106;51.332;12.336;2022-09-12T16:38:30;20.70;99.90
19888;DHT22;10106;51.332;12.336;2022-09-12T16:41:04;20.70;99.90
19888;DHT22;10106;51.332;12.336;2022-09-12T16:43:31;20.60;99.90
19888;DHT22;10106;51.332;12.336;2022-09-12T16:46:17;20.50;99.90
19888;DHT22;10106;51.332;12.336;2022-09-12T16:48:48;20.50;99.90
19888;DHT22;10106;51.332;12.336;2022-09-12T16:51:15;20.40;99.90
19888;DHT22;10106;51.332;12.336;2022-09-12T16:53:41;20.30;99.90
19888;DHT22;10106;51.332;12.336;2022-09-12T16:56:08;20.20;99.90
19888;DHT22;10106;51.332;12.336;2022-09-12T16:58:36;20.20;99.90
19888;DHT22;10106;51.332;12.336;2022-09-12T17:01:11;20.10;99.90
19888;DHT22;10106;51.332;12.336;2022-09-12T17:03:37;20.00;99.90
19888;DHT22;10106;51.332;12.336;2022-09-12T17:06:04;19.80;99.90
19888;DHT22;10106;51.332;12.336;2022-09-12T17:08:32;19.80;99.90
19888;DHT22;10106;51.332;12.336;2022-09-12T17:11:03;19.60;99.90
19888;DHT22;10106;51.332;12.336;2022-09-12T17:13:30;19.50;99.90
19888;DHT22;10106;51.332;12.336;2022-09-12T17:15:56;19.40;99.90
19888;DHT22;10106;51.332;12.336;2022-09-12T17:18:22;19.30;99.90
19888;DHT22;10106;51.332;12.336;2022-09-12T17:20:47;19.20;99.90
19888;DHT22;10106;51.332;12.336;2022-09-12T17:23:13;19.10;99.90
19888;DHT22;10106;51.332;12.336;2022-09-12T17:25:39;19.10;99.90
19888;DHT22;10106;51.332;12.336;2022-09-12T17:28:05;19.00;99.90
19888;DHT22;10106;51.332;12.336;2022-09-12T17:30:35;18.90;99.90
19888;DHT22;10106;51.332;12.336;2022-09-12T17:33:01;18.80;99.90
19888;DHT22;10106;51.332;12.336;2022-09-12T17:35:27;18.70;99.90
19888;DHT22;10106;51.332;12.336;2022-09-12T17:37:52;18.60;99.90
19888;DHT22;10106;51.332;12.336;2022-09-12T17:40:20;18.50;99.90
19888;DHT22;10106;51.332;12.336;2022-09-12T17:42:46;18.40;99.90
19888;DHT22;10106;51.332;12.336;2022-09-12T17:45:12;18.30;99.90
19888;DHT22;10106;51.332;12.336;2022-09-12T17:47:38;18.20;99.90
19888;DHT22;10106;51.332;12.336;2022-09-12T17:50:04;18.10;99.90
19888;DHT22;10106;51.332;12.336;2022-09-12T17:52:30;18.00;99.90
19888;DHT22;10106;51.332;12.336;2022-09-12T17:54:55;17.80;99.90
19888;DHT22;10106;51.332;12.336;2022-09-12T17:57:21;17.70;99.90
19888;DHT22;10106;51.332;12.336;2022-09-12T17:59:55;17.60;99.90
19888;DHT22;10106;51.332;12.336;2022-09-12T18:02:20;17.50;99.90
19888;DHT22;10106;51.332;12.336;2022-09-12T18:04:49;17.50;99.90
19888;DHT22;10106;51.332;12.336;2022-09-12T18:07:19;17.40;99.90
19888;DHT22;10106;51.332;12.336;2022-09-12T18:09:45;17.30;99.90
19888;DHT22;10106;51.332;12.336;2022-09-12T18:12:15;17.20;99.90
19888;DHT22;10106;51.332;12.336;2022-09-12T18:14:41;17.10;99.90
19888;DHT22;10106;51.332;12.336;2022-09-12T18:17:07;17.00;99.90
19888;DHT22;10106;51.332;12.336;2022-09-12T18:31:53;16.80;99.90
19888;DHT22;10106;51.332;12.336;2022-09-12T18:34:22;16.70;99.90
19888;DHT22;10106;51.332;12.336;2022-09-12T18:36:49;16.70;99.90
19888;DHT22;10106;51.332;12.336;2022-09-12T18:39:15;16.70;99.90
19888;DHT22;10106;51.332;12.336;2022-09-12T18:41:42;16.60;99.90
19888;DHT22;10106;51.332;12.336;2022-09-12T18:44:11;16.50;99.90
19888;DHT22;10106;51.332;12.336;2022-09-12T18:46:36;16.50;99.90